This is the latest recevied weather packets stored in our database for station/object MM9SQL. If no packets are shown the sender has not sent any weather packets the latest 10 day(s).
| Time | Temp. | Humidity | Pressure | Rain* | Wind** | Luminosity | Snow |
|---|---|---|---|---|---|---|---|
| 1777525503 | 5.56° C | 57% | 1026.5 hPa | 0 mm | - | - | - |
| 1777524602 | 5.56° C | 57% | 1026.6 hPa | 0 mm | - | - | - |
| 1777523703 | 6.67° C | 53% | 1026.8 hPa | 0 mm | - | - | - |
| 1777522212 | 7.22° C | 51% | 1026.8 hPa | 0 mm | - | - | - |
| 1777512621 | 8.89° C | 51% | 1027.4 hPa | 0 mm | - | - | - |
| 1777495803 | 13.33° C | 53% | 1027.6 hPa | 0 mm | - | - | - |
| 1777490703 | 17.78° C | 44% | 1027 hPa | 0 mm | - | - | - |
| 1777490104 | 18.33° C | 43% | 1026.9 hPa | 0 mm | - | - | - |
| 1777489804 | 18.33° C | 41% | 1027 hPa | 0 mm | - | - | - |
| 1777489208 | 18.89° C | 42% | 1026.9 hPa | 0 mm | - | - | - |
| 1777488007 | 19.44° C | 41% | 1026.9 hPa | 0 mm | - | - | - |
| 1777486805 | 20.56° C | 42% | 1027 hPa | 0 mm | - | - | - |
| 1777485003 | 21.11° C | 41% | 1027 hPa | 0 mm | - | - | - |
| 1777482922 | 21.67° C | 42% | 1026.9 hPa | 0 mm | - | - | - |
| 1777481107 | 21.67° C | 41% | 1027.1 hPa | 0 mm | - | - | - |
| 1777480211 | 22.22° C | 40% | 1027.1 hPa | 0 mm | - | - | - |
| 1777479606 | 22.78° C | 40% | 1027.3 hPa | 0 mm | - | - | - |
| 1777478708 | 21.67° C | 43% | 1027.2 hPa | 0 mm | - | - | - |
| 1777477805 | 21.67° C | 42% | 1027.2 hPa | 0 mm | - | - | - |
| 1777476608 | 20° C | 57% | 1027.5 hPa | 0 mm | - | - | - |
| 1777476007 | 18.89° C | 61% | 1027.6 hPa | 0 mm | - | - | - |
| 1777475716 | 18.33° C | 60% | 1027.7 hPa | 0 mm | - | - | - |
| 1777473924 | 17.78° C | 64% | 1028.3 hPa | 0 mm | - | - | - |
| 1777473303 | 16.67° C | 66% | 1028.3 hPa | 0 mm | - | - | - |
| 1777473008 | 16.67° C | 65% | 1028.5 hPa | 0 mm | - | - | - |
* Rain latest hour (hover to see other rain measurements)
** Current wind speed in m/s (hover to see current wind gust speed)